sensor_id;sensor_type;location;lat;lon;timestamp;temperature;humidity
39849;DHT22;25518;47.878;15.914;2023-06-14T00:00:47;10.60;99.90
39849;DHT22;25518;47.878;15.914;2023-06-14T00:03:37;10.50;99.90
39849;DHT22;25518;47.878;15.914;2023-06-14T00:06:29;10.60;99.90
39849;DHT22;25518;47.878;15.914;2023-06-14T00:09:18;10.80;99.90
39849;DHT22;25518;47.878;15.914;2023-06-14T00:12:08;10.90;99.90
39849;DHT22;25518;47.878;15.914;2023-06-14T00:14:57;10.90;99.90
39849;DHT22;25518;47.878;15.914;2023-06-14T00:17:47;10.90;99.90
39849;DHT22;25518;47.878;15.914;2023-06-14T00:20:36;11.00;99.90
39849;DHT22;25518;47.878;15.914;2023-06-14T00:23:26;11.10;99.90
39849;DHT22;25518;47.878;15.914;2023-06-14T00:26:15;11.10;99.90
39849;DHT22;25518;47.878;15.914;2023-06-14T00:29:05;11.10;99.90
39849;DHT22;25518;47.878;15.914;2023-06-14T00:31:55;11.10;99.90
39849;DHT22;25518;47.878;15.914;2023-06-14T00:34:44;11.10;99.90
39849;DHT22;25518;47.878;15.914;2023-06-14T00:37:34;11.20;99.90
39849;DHT22;25518;47.878;15.914;2023-06-14T00:40:24;11.30;99.90
39849;DHT22;25518;47.878;15.914;2023-06-14T00:43:13;11.40;99.90
39849;DHT22;25518;47.878;15.914;2023-06-14T00:46:03;11.40;99.90
39849;DHT22;25518;47.878;15.914;2023-06-14T00:48:53;11.40;99.90
39849;DHT22;25518;47.878;15.914;2023-06-14T00:51:43;11.50;99.90
39849;DHT22;25518;47.878;15.914;2023-06-14T00:54:33;11.50;99.90
39849;DHT22;25518;47.878;15.914;2023-06-14T00:57:23;11.40;99.90
39849;DHT22;25518;47.878;15.914;2023-06-14T01:00:13;11.30;99.90
39849;DHT22;25518;47.878;15.914;2023-06-14T01:03:04;11.30;99.90
39849;DHT22;25518;47.878;15.914;2023-06-14T01:06:03;11.40;99.90
39849;DHT22;25518;47.878;15.914;2023-06-14T01:09:28;11.40;99.90
39849;DHT22;25518;47.878;15.914;2023-06-14T01:12:15;11.30;99.90
39849;DHT22;25518;47.878;15.914;2023-06-14T01:15:07;11.30;99.90
39849;DHT22;25518;47.878;15.914;2023-06-14T01:17:58;11.40;99.90
39849;DHT22;25518;47.878;15.914;2023-06-14T01:20:52;11.50;99.90
39849;DHT22;25518;47.878;15.914;2023-06-14T01:23:44;11.50;99.90
39849;DHT22;25518;47.878;15.914;2023-06-14T01:26:34;10.00;99.90
39849;DHT22;25518;47.878;15.914;2023-06-14T01:29:27;11.50;99.90
39849;DHT22;25518;47.878;15.914;2023-06-14T01:32:25;11.60;99.90
39849;DHT22;25518;47.878;15.914;2023-06-14T01:35:15;11.40;99.90
39849;DHT22;25518;47.878;15.914;2023-06-14T01:38:06;11.40;99.90
39849;DHT22;25518;47.878;15.914;2023-06-14T01:40:58;11.40;99.90
39849;DHT22;25518;47.878;15.914;2023-06-14T01:43:50;11.20;99.90
39849;DHT22;25518;47.878;15.914;2023-06-14T01:46:42;11.20;99.90
39849;DHT22;25518;47.878;15.914;2023-06-14T01:49:34;11.20;99.90
39849;DHT22;25518;47.878;15.914;2023-06-14T01:52:24;9.70;99.90
39849;DHT22;25518;47.878;15.914;2023-06-14T01:55:14;11.30;99.90
39849;DHT22;25518;47.878;15.914;2023-06-14T01:58:05;11.30;99.90
39849;DHT22;25518;47.878;15.914;2023-06-14T02:00:54;11.50;99.90
39849;DHT22;25518;47.878;15.914;2023-06-14T02:03:46;11.50;99.90
39849;DHT22;25518;47.878;15.914;2023-06-14T02:06:35;11.50;99.90
39849;DHT22;25518;47.878;15.914;2023-06-14T02:09:25;11.50;99.90
39849;DHT22;25518;47.878;15.914;2023-06-14T02:12:14;11.30;99.90
39849;DHT22;25518;47.878;15.914;2023-06-14T02:15:04;11.50;99.90
39849;DHT22;25518;47.878;15.914;2023-06-14T02:17:55;11.60;99.90
39849;DHT22;25518;47.878;15.914;2023-06-14T02:20:45;11.50;99.90
39849;DHT22;25518;47.878;15.914;2023-06-14T02:23:34;11.30;99.90
39849;DHT22;25518;47.878;15.914;2023-06-14T02:26:24;11.20;99.90
39849;DHT22;25518;47.878;15.914;2023-06-14T02:29:14;11.10;99.90
39849;DHT22;25518;47.878;15.914;2023-06-14T02:32:05;11.20;99.90
39849;DHT22;25518;47.878;15.914;2023-06-14T02:34:56;11.30;99.90
39849;DHT22;25518;47.878;15.914;2023-06-14T02:37:46;11.50;99.90
39849;DHT22;25518;47.878;15.914;2023-06-14T02:40:36;11.50;99.90
39849;DHT22;25518;47.878;15.914;2023-06-14T02:43:25;11.50;99.90
39849;DHT22;25518;47.878;15.914;2023-06-14T02:46:15;11.40;99.90
39849;DHT22;25518;47.878;15.914;2023-06-14T02:49:05;11.40;99.90
39849;DHT22;25518;47.878;15.914;2023-06-14T02:51:54;11.30;99.90
39849;DHT22;25518;47.878;15.914;2023-06-14T02:54:44;11.30;99.90
39849;DHT22;25518;47.878;15.914;2023-06-14T02:57:36;11.30;99.90
39849;DHT22;25518;47.878;15.914;2023-06-14T03:00:26;11.40;99.90
39849;DHT22;25518;47.878;15.914;2023-06-14T03:20:14;10.80;99.90
39849;DHT22;25518;47.878;15.914;2023-06-14T03:23:05;10.90;99.90
39849;DHT22;25518;47.878;15.914;2023-06-14T03:25:55;11.00;99.90
39849;DHT22;25518;47.878;15.914;2023-06-14T03:28:46;10.70;99.90
39849;DHT22;25518;47.878;15.914;2023-06-14T03:31:35;10.90;99.90
39849;DHT22;25518;47.878;15.914;2023-06-14T03:34:25;11.00;99.90
39849;DHT22;25518;47.878;15.914;2023-06-14T03:37:15;10.90;99.90
39849;DHT22;25518;47.878;15.914;2023-06-14T03:40:05;11.00;99.90
39849;DHT22;25518;47.878;15.914;2023-06-14T03:42:55;11.00;99.90
39849;DHT22;25518;47.878;15.914;2023-06-14T03:45:45;11.10;99.90
39849;DHT22;25518;47.878;15.914;2023-06-14T03:48:34;8.40;99.90
39849;DHT22;25518;47.878;15.914;2023-06-14T03:51:24;11.20;99.90
39849;DHT22;25518;47.878;15.914;2023-06-14T03:54:14;11.20;99.90
39849;DHT22;25518;47.878;15.914;2023-06-14T03:57:04;11.10;99.90
39849;DHT22;25518;47.878;15.914;2023-06-14T03:59:55;11.30;99.90
39849;DHT22;25518;47.878;15.914;2023-06-14T04:02:45;11.30;99.90
39849;DHT22;25518;47.878;15.914;2023-06-14T04:05:34;11.30;99.90
39849;DHT22;25518;47.878;15.914;2023-06-14T04:08:26;11.20;99.90
39849;DHT22;25518;47.878;15.914;2023-06-14T04:11:15;11.20;99.90
39849;DHT22;25518;47.878;15.914;2023-06-14T04:14:05;11.20;99.90
39849;DHT22;25518;47.878;15.914;2023-06-14T04:16:55;11.30;99.90
39849;DHT22;25518;47.878;15.914;2023-06-14T04:19:45;10.80;99.90
39849;DHT22;25518;47.878;15.914;2023-06-14T04:22:35;9.20;99.90
39849;DHT22;25518;47.878;15.914;2023-06-14T04:25:25;11.00;99.90
39849;DHT22;25518;47.878;15.914;2023-06-14T04:28:17;10.90;99.90
39849;DHT22;25518;47.878;15.914;2023-06-14T04:31:07;11.10;99.90
39849;DHT22;25518;47.878;15.914;2023-06-14T04:33:59;11.20;99.90
39849;DHT22;25518;47.878;15.914;2023-06-14T04:36:48;11.40;99.90
39849;DHT22;25518;47.878;15.914;2023-06-14T04:39:38;11.50;99.90
39849;DHT22;25518;47.878;15.914;2023-06-14T04:42:27;11.40;99.90
39849;DHT22;25518;47.878;15.914;2023-06-14T04:45:20;11.70;99.90
39849;DHT22;25518;47.878;15.914;2023-06-14T04:48:11;11.80;99.90
39849;DHT22;25518;47.878;15.914;2023-06-14T04:51:01;11.90;99.90
39849;DHT22;25518;47.878;15.914;2023-06-14T04:53:53;12.00;99.90
39849;DHT22;25518;47.878;15.914;2023-06-14T04:56:46;12.10;99.90
39849;DHT22;25518;47.878;15.914;2023-06-14T04:59:35;12.20;99.90
39849;DHT22;25518;47.878;15.914;2023-06-14T05:02:26;12.20;99.90
39849;DHT22;25518;47.878;15.914;2023-06-14T05:05:16;12.20;99.90
39849;DHT22;25518;47.878;15.914;2023-06-14T05:08:07;12.20;99.90
39849;DHT22;25518;47.878;15.914;2023-06-14T05:10:57;12.10;99.90
39849;DHT22;25518;47.878;15.914;2023-06-14T05:13:47;12.20;99.90
39849;DHT22;25518;47.878;15.914;2023-06-14T05:16:37;12.20;99.90
39849;DHT22;25518;47.878;15.914;2023-06-14T05:19:27;12.20;99.90
39849;DHT22;25518;47.878;15.914;2023-06-14T05:22:17;12.00;99.90
39849;DHT22;25518;47.878;15.914;2023-06-14T05:25:07;12.10;99.90
39849;DHT22;25518;47.878;15.914;2023-06-14T05:27:56;12.10;99.90
39849;DHT22;25518;47.878;15.914;2023-06-14T05:30:46;12.40;99.90
39849;DHT22;25518;47.878;15.914;2023-06-14T05:33:36;12.30;99.90
39849;DHT22;25518;47.878;15.914;2023-06-14T05:36:26;12.40;99.90
39849;DHT22;25518;47.878;15.914;2023-06-14T05:39:17;11.60;99.90
39849;DHT22;25518;47.878;15.914;2023-06-14T05:42:07;12.60;99.90
39849;DHT22;25518;47.878;15.914;2023-06-14T05:44:56;12.40;99.90
39849;DHT22;25518;47.878;15.914;2023-06-14T05:47:46;12.60;99.90
39849;DHT22;25518;47.878;15.914;2023-06-14T05:50:36;12.70;99.90
39849;DHT22;25518;47.878;15.914;2023-06-14T05:53:25;12.70;99.90
39849;DHT22;25518;47.878;15.914;2023-06-14T05:56:15;12.80;99.90
39849;DHT22;25518;47.878;15.914;2023-06-14T05:59:07;12.50;99.90
39849;DHT22;25518;47.878;15.914;2023-06-14T06:01:56;13.10;99.90
39849;DHT22;25518;47.878;15.914;2023-06-14T06:04:46;13.10;99.90
39849;DHT22;25518;47.878;15.914;2023-06-14T06:07:37;13.10;99.90
39849;DHT22;25518;47.878;15.914;2023-06-14T06:10:26;13.20;99.90
39849;DHT22;25518;47.878;15.914;2023-06-14T06:13:16;12.30;99.90
39849;DHT22;25518;47.878;15.914;2023-06-14T06:16:06;13.10;99.90
39849;DHT22;25518;47.878;15.914;2023-06-14T06:18:55;13.10;99.90
39849;DHT22;25518;47.878;15.914;2023-06-14T06:21:45;13.30;99.90
39849;DHT22;25518;47.878;15.914;2023-06-14T06:24:34;13.40;99.90
39849;DHT22;25518;47.878;15.914;2023-06-14T06:27:24;13.30;99.90
39849;DHT22;25518;47.878;15.914;2023-06-14T06:30:13;13.30;99.90
39849;DHT22;25518;47.878;15.914;2023-06-14T06:33:04;13.30;99.90
39849;DHT22;25518;47.878;15.914;2023-06-14T06:35:53;13.30;99.90
39849;DHT22;25518;47.878;15.914;2023-06-14T06:38:43;13.10;99.90
39849;DHT22;25518;47.878;15.914;2023-06-14T06:41:32;13.50;99.90
39849;DHT22;25518;47.878;15.914;2023-06-14T06:44:24;13.40;99.90
39849;DHT22;25518;47.878;15.914;2023-06-14T06:47:14;13.30;99.90
39849;DHT22;25518;47.878;15.914;2023-06-14T06:50:04;13.20;99.90
39849;DHT22;25518;47.878;15.914;2023-06-14T06:52:55;13.30;99.90
39849;DHT22;25518;47.878;15.914;2023-06-14T06:55:45;13.20;99.90
39849;DHT22;25518;47.878;15.914;2023-06-14T06:58:34;13.50;99.90
39849;DHT22;25518;47.878;15.914;2023-06-14T07:01:24;13.90;99.90
39849;DHT22;25518;47.878;15.914;2023-06-14T07:04:15;14.00;99.90
39849;DHT22;25518;47.878;15.914;2023-06-14T07:07:05;14.20;99.90
39849;DHT22;25518;47.878;15.914;2023-06-14T07:09:54;14.60;99.90
39849;DHT22;25518;47.878;15.914;2023-06-14T07:12:46;14.50;99.90
39849;DHT22;25518;47.878;15.914;2023-06-14T07:15:36;14.70;99.90
39849;DHT22;25518;47.878;15.914;2023-06-14T07:18:26;14.60;99.90
39849;DHT22;25518;47.878;15.914;2023-06-14T07:21:16;14.50;99.90
39849;DHT22;25518;47.878;15.914;2023-06-14T07:24:06;14.70;99.90
39849;DHT22;25518;47.878;15.914;2023-06-14T07:26:57;14.90;99.90
39849;DHT22;25518;47.878;15.914;2023-06-14T07:29:47;15.10;99.90
39849;DHT22;25518;47.878;15.914;2023-06-14T07:32:36;15.10;99.90
39849;DHT22;25518;47.878;15.914;2023-06-14T07:35:26;15.20;99.90
39849;DHT22;25518;47.878;15.914;2023-06-14T07:38:15;15.20;99.90
39849;DHT22;25518;47.878;15.914;2023-06-14T07:41:05;15.40;99.90
39849;DHT22;25518;47.878;15.914;2023-06-14T07:43:55;15.50;99.90
39849;DHT22;25518;47.878;15.914;2023-06-14T07:46:44;15.30;99.90
39849;DHT22;25518;47.878;15.914;2023-06-14T07:49:38;15.50;99.90
39849;DHT22;25518;47.878;15.914;2023-06-14T07:52:28;15.80;99.90
39849;DHT22;25518;47.878;15.914;2023-06-14T07:55:17;15.90;99.90
39849;DHT22;25518;47.878;15.914;2023-06-14T07:58:08;15.70;99.90
39849;DHT22;25518;47.878;15.914;2023-06-14T08:00:57;15.80;99.90
39849;DHT22;25518;47.878;15.914;2023-06-14T08:03:47;16.10;99.90
39849;DHT22;25518;47.878;15.914;2023-06-14T08:06:37;16.40;99.90
39849;DHT22;25518;47.878;15.914;2023-06-14T08:09:27;16.60;99.90
39849;DHT22;25518;47.878;15.914;2023-06-14T08:12:18;16.70;99.90
39849;DHT22;25518;47.878;15.914;2023-06-14T08:15:09;16.90;99.90
39849;DHT22;25518;47.878;15.914;2023-06-14T08:17:59;17.10;99.90
39849;DHT22;25518;47.878;15.914;2023-06-14T08:20:50;15.50;99.90
39849;DHT22;25518;47.878;15.914;2023-06-14T08:23:41;17.20;99.90
39849;DHT22;25518;47.878;15.914;2023-06-14T08:26:34;17.40;99.90
39849;DHT22;25518;47.878;15.914;2023-06-14T08:29:25;17.80;99.90
39849;DHT22;25518;47.878;15.914;2023-06-14T08:32:18;18.20;99.90
39849;DHT22;25518;47.878;15.914;2023-06-14T08:35:08;16.60;99.90
39849;DHT22;25518;47.878;15.914;2023-06-14T08:37:57;17.90;99.90
39849;DHT22;25518;47.878;15.914;2023-06-14T08:40:50;17.50;99.90
39849;DHT22;25518;47.878;15.914;2023-06-14T08:43:40;17.20;99.90
39849;DHT22;25518;47.878;15.914;2023-06-14T08:46:32;17.10;99.90
39849;DHT22;25518;47.878;15.914;2023-06-14T08:49:23;17.10;99.90
39849;DHT22;25518;47.878;15.914;2023-06-14T08:52:16;17.00;99.90
39849;DHT22;25518;47.878;15.914;2023-06-14T08:55:08;17.30;99.90
39849;DHT22;25518;47.878;15.914;2023-06-14T08:57:58;16.60;99.90
39849;DHT22;25518;47.878;15.914;2023-06-14T09:00:48;17.50;99.90
39849;DHT22;25518;47.878;15.914;2023-06-14T09:03:38;17.50;99.90
39849;DHT22;25518;47.878;15.914;2023-06-14T09:06:30;17.40;99.90
39849;DHT22;25518;47.878;15.914;2023-06-14T09:09:20;17.50;99.90
39849;DHT22;25518;47.878;15.914;2023-06-14T09:12:12;17.50;99.90
39849;DHT22;25518;47.878;15.914;2023-06-14T09:15:03;17.70;99.90
39849;DHT22;25518;47.878;15.914;2023-06-14T09:17:55;18.00;99.90
39849;DHT22;25518;47.878;15.914;2023-06-14T09:20:44;18.50;99.90
39849;DHT22;25518;47.878;15.914;2023-06-14T09:23:37;18.70;99.90
39849;DHT22;25518;47.878;15.914;2023-06-14T09:26:27;18.90;99.90
39849;DHT22;25518;47.878;15.914;2023-06-14T09:29:18;19.00;99.90
39849;DHT22;25518;47.878;15.914;2023-06-14T09:32:07;19.00;99.90
39849;DHT22;25518;47.878;15.914;2023-06-14T09:34:58;17.20;99.90
39849;DHT22;25518;47.878;15.914;2023-06-14T09:37:47;19.50;99.90
39849;DHT22;25518;47.878;15.914;2023-06-14T09:40:38;19.30;99.90
39849;DHT22;25518;47.878;15.914;2023-06-14T09:43:28;18.90;99.90
39849;DHT22;25518;47.878;15.914;2023-06-14T09:46:18;18.30;99.90
39849;DHT22;25518;47.878;15.914;2023-06-14T09:49:09;16.30;99.90
39849;DHT22;25518;47.878;15.914;2023-06-14T09:52:00;18.20;99.90
39849;DHT22;25518;47.878;15.914;2023-06-14T09:54:51;17.90;99.90
39849;DHT22;25518;47.878;15.914;2023-06-14T09:57:43;17.80;99.90
39849;DHT22;25518;47.878;15.914;2023-06-14T10:00:37;17.80;99.90
39849;DHT22;25518;47.878;15.914;2023-06-14T10:03:29;18.00;99.90
39849;DHT22;25518;47.878;15.914;2023-06-14T10:06:21;18.10;99.90
39849;DHT22;25518;47.878;15.914;2023-06-14T10:09:13;18.20;99.90
39849;DHT22;25518;47.878;15.914;2023-06-14T10:12:04;18.10;99.90
39849;DHT22;25518;47.878;15.914;2023-06-14T10:14:55;18.40;99.90
39849;DHT22;25518;47.878;15.914;2023-06-14T10:17:51;18.50;99.90
39849;DHT22;25518;47.878;15.914;2023-06-14T10:20:55;18.70;99.90
39849;DHT22;25518;47.878;15.914;2023-06-14T10:23:48;19.00;99.90
39849;DHT22;25518;47.878;15.914;2023-06-14T10:26:51;19.30;99.90
39849;DHT22;25518;47.878;15.914;2023-06-14T10:30:02;19.70;99.90
39849;DHT22;25518;47.878;15.914;2023-06-14T10:33:08;19.90;99.90
39849;DHT22;25518;47.878;15.914;2023-06-14T10:36:08;18.30;99.90
39849;DHT22;25518;47.878;15.914;2023-06-14T10:38:59;19.60;99.90
39849;DHT22;25518;47.878;15.914;2023-06-14T10:41:53;19.30;99.90
39849;DHT22;25518;47.878;15.914;2023-06-14T10:44:46;19.30;99.90
39849;DHT22;25518;47.878;15.914;2023-06-14T10:47:38;19.70;99.90
39849;DHT22;25518;47.878;15.914;2023-06-14T10:50:28;19.80;99.90
39849;DHT22;25518;47.878;15.914;2023-06-14T10:53:25;20.50;99.90
39849;DHT22;25518;47.878;15.914;2023-06-14T10:56:32;20.20;99.90
39849;DHT22;25518;47.878;15.914;2023-06-14T10:59:21;19.80;99.90
39849;DHT22;25518;47.878;15.914;2023-06-14T11:05:14;19.00;99.90
39849;DHT22;25518;47.878;15.914;2023-06-14T11:11:17;19.20;99.90
39849;DHT22;25518;47.878;15.914;2023-06-14T11:14:07;19.10;99.90
39849;DHT22;25518;47.878;15.914;2023-06-14T11:16:59;19.00;99.90
39849;DHT22;25518;47.878;15.914;2023-06-14T11:19:50;19.00;99.90
39849;DHT22;25518;47.878;15.914;2023-06-14T11:22:41;19.10;99.90
39849;DHT22;25518;47.878;15.914;2023-06-14T11:25:31;19.20;99.90
39849;DHT22;25518;47.878;15.914;2023-06-14T11:28:21;19.40;99.90
39849;DHT22;25518;47.878;15.914;2023-06-14T11:31:12;19.70;99.90
39849;DHT22;25518;47.878;15.914;2023-06-14T11:34:02;19.80;99.90
39849;DHT22;25518;47.878;15.914;2023-06-14T11:36:53;19.40;99.90
39849;DHT22;25518;47.878;15.914;2023-06-14T11:39:44;19.20;99.90
39849;DHT22;25518;47.878;15.914;2023-06-14T11:42:34;19.20;99.90
39849;DHT22;25518;47.878;15.914;2023-06-14T11:45:25;19.50;99.90
39849;DHT22;25518;47.878;15.914;2023-06-14T11:48:14;19.70;99.90
39849;DHT22;25518;47.878;15.914;2023-06-14T11:51:04;19.40;99.90
39849;DHT22;25518;47.878;15.914;2023-06-14T11:53:55;19.30;99.90
39849;DHT22;25518;47.878;15.914;2023-06-14T11:56:44;19.70;99.90
39849;DHT22;25518;47.878;15.914;2023-06-14T11:59:41;19.70;99.90
39849;DHT22;25518;47.878;15.914;2023-06-14T12:02:31;20.00;99.90
39849;DHT22;25518;47.878;15.914;2023-06-14T12:05:22;20.00;99.90
39849;DHT22;25518;47.878;15.914;2023-06-14T12:08:12;19.60;99.90
39849;DHT22;25518;47.878;15.914;2023-06-14T12:11:11;19.80;99.90
39849;DHT22;25518;47.878;15.914;2023-06-14T12:14:02;19.90;99.90
39849;DHT22;25518;47.878;15.914;2023-06-14T12:17:04;20.00;99.90
39849;DHT22;25518;47.878;15.914;2023-06-14T12:19:55;20.10;99.90
39849;DHT22;25518;47.878;15.914;2023-06-14T12:22:53;19.90;99.90
39849;DHT22;25518;47.878;15.914;2023-06-14T12:25:43;18.10;99.90
39849;DHT22;25518;47.878;15.914;2023-06-14T12:28:34;20.10;99.90
39849;DHT22;25518;47.878;15.914;2023-06-14T12:31:23;20.20;99.90
39849;DHT22;25518;47.878;15.914;2023-06-14T12:34:13;19.80;99.90
39849;DHT22;25518;47.878;15.914;2023-06-14T12:37:03;19.70;99.90
39849;DHT22;25518;47.878;15.914;2023-06-14T12:39:54;20.00;99.90
39849;DHT22;25518;47.878;15.914;2023-06-14T12:42:44;20.30;99.90
39849;DHT22;25518;47.878;15.914;2023-06-14T12:45:36;20.40;99.90
39849;DHT22;25518;47.878;15.914;2023-06-14T12:48:26;20.60;99.90
39849;DHT22;25518;47.878;15.914;2023-06-14T12:51:16;20.60;99.90
39849;DHT22;25518;47.878;15.914;2023-06-14T12:54:06;20.30;99.90
39849;DHT22;25518;47.878;15.914;2023-06-14T12:56:55;20.30;99.90
39849;DHT22;25518;47.878;15.914;2023-06-14T12:59:45;20.10;99.90
39849;DHT22;25518;47.878;15.914;2023-06-14T13:02:35;20.10;99.90
39849;DHT22;25518;47.878;15.914;2023-06-14T13:05:25;20.20;99.90
39849;DHT22;25518;47.878;15.914;2023-06-14T13:08:14;20.20;99.90
39849;DHT22;25518;47.878;15.914;2023-06-14T13:11:04;19.70;99.90
39849;DHT22;25518;47.878;15.914;2023-06-14T13:13:54;19.40;99.90
39849;DHT22;25518;47.878;15.914;2023-06-14T13:16:44;19.30;99.90
39849;DHT22;25518;47.878;15.914;2023-06-14T13:19:34;19.30;99.90
39849;DHT22;25518;47.878;15.914;2023-06-14T13:22:25;19.20;99.90
39849;DHT22;25518;47.878;15.914;2023-06-14T13:25:14;19.40;99.90
39849;DHT22;25518;47.878;15.914;2023-06-14T13:28:04;19.40;99.90
39849;DHT22;25518;47.878;15.914;2023-06-14T13:30:54;19.50;99.90
39849;DHT22;25518;47.878;15.914;2023-06-14T13:33:45;19.90;99.90
39849;DHT22;25518;47.878;15.914;2023-06-14T13:36:34;20.30;99.90
39849;DHT22;25518;47.878;15.914;2023-06-14T13:39:25;20.40;99.90
39849;DHT22;25518;47.878;15.914;2023-06-14T13:42:14;20.40;99.90
39849;DHT22;25518;47.878;15.914;2023-06-14T13:45:04;20.40;99.90
39849;DHT22;25518;47.878;15.914;2023-06-14T13:47:54;20.40;99.90
39849;DHT22;25518;47.878;15.914;2023-06-14T13:50:44;20.50;99.90
39849;DHT22;25518;47.878;15.914;2023-06-14T13:53:35;20.70;99.90
39849;DHT22;25518;47.878;15.914;2023-06-14T13:56:25;20.50;99.90
39849;DHT22;25518;47.878;15.914;2023-06-14T13:59:14;20.60;99.90
39849;DHT22;25518;47.878;15.914;2023-06-14T14:02:06;20.80;99.90
39849;DHT22;25518;47.878;15.914;2023-06-14T14:04:56;20.70;99.90
39849;DHT22;25518;47.878;15.914;2023-06-14T14:07:46;20.80;99.90
39849;DHT22;25518;47.878;15.914;2023-06-14T14:10:36;20.80;99.90
39849;DHT22;25518;47.878;15.914;2023-06-14T14:13:26;21.00;99.90
39849;DHT22;25518;47.878;15.914;2023-06-14T14:16:16;21.00;99.90
39849;DHT22;25518;47.878;15.914;2023-06-14T14:19:05;20.70;99.90
39849;DHT22;25518;47.878;15.914;2023-06-14T14:21:55;20.80;99.90
39849;DHT22;25518;47.878;15.914;2023-06-14T14:24:45;21.00;99.90
39849;DHT22;25518;47.878;15.914;2023-06-14T14:27:35;21.00;99.90
39849;DHT22;25518;47.878;15.914;2023-06-14T14:30:25;20.80;99.90
39849;DHT22;25518;47.878;15.914;2023-06-14T14:33:16;20.90;99.90
39849;DHT22;25518;47.878;15.914;2023-06-14T14:36:06;21.00;99.90
39849;DHT22;25518;47.878;15.914;2023-06-14T14:38:57;20.90;99.90
39849;DHT22;25518;47.878;15.914;2023-06-14T14:41:46;20.90;99.90
39849;DHT22;25518;47.878;15.914;2023-06-14T14:44:36;20.30;99.90
39849;DHT22;25518;47.878;15.914;2023-06-14T14:47:25;20.20;99.90
39849;DHT22;25518;47.878;15.914;2023-06-14T14:50:16;20.20;99.90
39849;DHT22;25518;47.878;15.914;2023-06-14T14:53:06;20.00;99.90
39849;DHT22;25518;47.878;15.914;2023-06-14T14:55:56;19.90;99.90
39849;DHT22;25518;47.878;15.914;2023-06-14T14:58:46;20.10;99.90
39849;DHT22;25518;47.878;15.914;2023-06-14T15:01:38;20.30;99.90
39849;DHT22;25518;47.878;15.914;2023-06-14T15:04:28;18.90;99.90
39849;DHT22;25518;47.878;15.914;2023-06-14T15:07:17;20.50;99.90
39849;DHT22;25518;47.878;15.914;2023-06-14T15:10:08;20.40;99.90
39849;DHT22;25518;47.878;15.914;2023-06-14T15:12:58;20.60;99.90
39849;DHT22;25518;47.878;15.914;2023-06-14T15:15:47;20.60;99.90
39849;DHT22;25518;47.878;15.914;2023-06-14T15:18:37;20.60;99.90
39849;DHT22;25518;47.878;15.914;2023-06-14T15:21:26;20.80;99.90
39849;DHT22;25518;47.878;15.914;2023-06-14T15:24:16;21.00;99.90
39849;DHT22;25518;47.878;15.914;2023-06-14T15:27:06;21.10;99.70
39849;DHT22;25518;47.878;15.914;2023-06-14T15:29:55;21.10;99.90
39849;DHT22;25518;47.878;15.914;2023-06-14T15:32:45;20.70;99.70
39849;DHT22;25518;47.878;15.914;2023-06-14T15:35:34;20.50;99.90
39849;DHT22;25518;47.878;15.914;2023-06-14T15:38:24;20.50;99.90
39849;DHT22;25518;47.878;15.914;2023-06-14T15:41:14;20.50;99.90
39849;DHT22;25518;47.878;15.914;2023-06-14T15:44:04;20.10;99.90
39849;DHT22;25518;47.878;15.914;2023-06-14T15:46:54;19.70;99.90
39849;DHT22;25518;47.878;15.914;2023-06-14T15:49:44;19.30;99.90
39849;DHT22;25518;47.878;15.914;2023-06-14T15:52:34;19.10;99.90
39849;DHT22;25518;47.878;15.914;2023-06-14T15:55:24;19.00;99.90
39849;DHT22;25518;47.878;15.914;2023-06-14T15:58:13;19.10;99.90
39849;DHT22;25518;47.878;15.914;2023-06-14T16:01:03;18.90;99.90
39849;DHT22;25518;47.878;15.914;2023-06-14T16:03:53;19.00;99.90
39849;DHT22;25518;47.878;15.914;2023-06-14T16:06:45;17.20;99.90
39849;DHT22;25518;47.878;15.914;2023-06-14T16:09:35;19.70;99.90
39849;DHT22;25518;47.878;15.914;2023-06-14T16:12:24;20.10;99.90
39849;DHT22;25518;47.878;15.914;2023-06-14T16:15:14;20.50;99.90
39849;DHT22;25518;47.878;15.914;2023-06-14T16:18:03;20.70;99.90
39849;DHT22;25518;47.878;15.914;2023-06-14T16:20:53;20.70;99.90
39849;DHT22;25518;47.878;15.914;2023-06-14T16:23:44;20.60;99.90
39849;DHT22;25518;47.878;15.914;2023-06-14T16:26:34;20.40;99.90
39849;DHT22;25518;47.878;15.914;2023-06-14T16:29:24;20.30;99.90
39849;DHT22;25518;47.878;15.914;2023-06-14T16:32:13;20.30;99.90
39849;DHT22;25518;47.878;15.914;2023-06-14T16:35:03;20.20;99.90
39849;DHT22;25518;47.878;15.914;2023-06-14T16:37:53;20.10;99.90
39849;DHT22;25518;47.878;15.914;2023-06-14T16:40:42;19.90;99.90
39849;DHT22;25518;47.878;15.914;2023-06-14T16:43:32;19.80;99.90
39849;DHT22;25518;47.878;15.914;2023-06-14T16:46:30;19.70;99.90
39849;DHT22;25518;47.878;15.914;2023-06-14T16:49:19;19.40;99.90
39849;DHT22;25518;47.878;15.914;2023-06-14T16:52:09;19.20;99.90
39849;DHT22;25518;47.878;15.914;2023-06-14T16:54:59;19.50;99.90
39849;DHT22;25518;47.878;15.914;2023-06-14T16:57:49;19.90;99.90
39849;DHT22;25518;47.878;15.914;2023-06-14T17:00:40;20.10;99.90
39849;DHT22;25518;47.878;15.914;2023-06-14T17:03:29;20.50;99.90
39849;DHT22;25518;47.878;15.914;2023-06-14T17:06:21;20.50;99.90
39849;DHT22;25518;47.878;15.914;2023-06-14T17:09:11;20.20;99.90
39849;DHT22;25518;47.878;15.914;2023-06-14T17:12:03;20.50;99.90
39849;DHT22;25518;47.878;15.914;2023-06-14T17:14:52;20.00;99.90
39849;DHT22;25518;47.878;15.914;2023-06-14T17:17:42;19.40;99.90
39849;DHT22;25518;47.878;15.914;2023-06-14T17:20:32;19.00;99.90
39849;DHT22;25518;47.878;15.914;2023-06-14T17:23:21;18.40;99.90
39849;DHT22;25518;47.878;15.914;2023-06-14T17:26:11;18.20;99.90
39849;DHT22;25518;47.878;15.914;2023-06-14T17:29:01;18.20;99.90
39849;DHT22;25518;47.878;15.914;2023-06-14T17:31:51;17.80;99.90
39849;DHT22;25518;47.878;15.914;2023-06-14T17:34:41;17.40;99.90
39849;DHT22;25518;47.878;15.914;2023-06-14T17:37:30;17.40;99.90
39849;DHT22;25518;47.878;15.914;2023-06-14T17:40:20;17.40;99.90
39849;DHT22;25518;47.878;15.914;2023-06-14T17:43:10;15.60;99.90
39849;DHT22;25518;47.878;15.914;2023-06-14T17:45:59;17.70;99.90
39849;DHT22;25518;47.878;15.914;2023-06-14T17:48:49;17.60;99.90
39849;DHT22;25518;47.878;15.914;2023-06-14T17:51:40;17.70;99.90
39849;DHT22;25518;47.878;15.914;2023-06-14T17:54:29;17.30;99.90
39849;DHT22;25518;47.878;15.914;2023-06-14T17:57:19;17.00;99.90
39849;DHT22;25518;47.878;15.914;2023-06-14T18:00:08;16.70;99.90
39849;DHT22;25518;47.878;15.914;2023-06-14T18:02:58;16.60;99.90